Dades meteomassalio
Diari Summary for Maig 26, 2017 Units:  Metric    English   Both
« Previous Day
Next Day »
Diari Semanal Mensual Anual Personalitzat
  Maxima: Minima: Mijana:
Temperatura: 32.7 °C 12.9 °C 23.2 °C
Rosada: 15.8 °C 4.8 °C 10 °C
Humitat: 71 % 22 % 45 %
Velocitat del vent: 35.2 km/h 0.0 km/h 8.3 km/h
Racha vent: 35.2 km/h - -
Vent:- - ESE
Pressio: 1013.4 hPa 1010.0 hPa -
Pluja: 0.0 mm    
Historical Graphs
 
 
Tabular Data for Maig 26, 2017
Time Temperature Dew Point Pressure Wind Wind Speed Wind Gust Humidity Rainfall Rate (Hourly) solar Conditions
00:04 22.4 °C 6.6 °C 1012.4 hPa Calm     36 % 0.0 mm 0.0 W/m2 CLR
00:09 22.1 °C 6.7 °C 1012.4 hPa Calm     37 % 0.0 mm 0.0 W/m2 CLR
00:14 21.8 °C 6.4 °C 1012.4 hPa Calm     37 % 0.0 mm 0.0 W/m2 CLR
00:19 21.4 °C 6.5 °C 1012.4 hPa Calm     38 % 0.0 mm 0.0 W/m2 CLR
00:29 20.7 °C 7.3 °C 1012.4 hPa Calm     42 % 0.0 mm 0.0 W/m2 CLR
00:34 20.4 °C 6.7 °C 1012.4 hPa Calm     41 % 0.0 mm 0.0 W/m2 CLR
00:39 20.1 °C 6.4 °C 1012.4 hPa Calm     41 % 0.0 mm 0.0 W/m2 CLR
00:44 20.1 °C 6.7 °C 1012.4 hPa Calm     42 % 0.0 mm 0.0 W/m2 CLR
00:49 19.8 °C 6.9 °C 1012.8 hPa Calm     43 % 0.0 mm 0.0 W/m2 CLR
00:54 19.5 °C 6.9 °C 1012.8 hPa Calm     44 % 0.0 mm 0.0 W/m2 CLR
00:59 19.2 °C 7.0 °C 1012.8 hPa Calm     45 % 0.0 mm 0.0 W/m2 CLR
01:04 19.0 °C 7.1 °C 1012.8 hPa Calm     46 % 0.0 mm 0.0 W/m2 CLR
01:09 18.7 °C 6.8 °C 1012.8 hPa Calm     46 % 0.0 mm 0.0 W/m2 CLR
01:14 18.4 °C 6.6 °C 1012.8 hPa Calm     46 % 0.0 mm 0.0 W/m2 CLR
01:19 18.2 °C 6.7 °C 1012.8 hPa Calm     47 % 0.0 mm 0.0 W/m2 CLR
01:24 18.1 °C 7.2 °C 1012.8 hPa Calm     49 % 0.0 mm 0.0 W/m2 CLR
01:29 17.8 °C 6.9 °C 1012.8 hPa Calm     49 % 0.0 mm 0.0 W/m2 CLR
01:34 17.7 °C 6.9 °C 1012.8 hPa Calm     49 % 0.0 mm 0.0 W/m2 CLR
01:39 17.5 °C 6.3 °C 1012.8 hPa Calm     48 % 0.0 mm 0.0 W/m2 CLR
01:44 17.4 °C 6.8 °C 1012.8 hPa Calm     50 % 0.0 mm 0.0 W/m2 CLR
01:49 17.3 °C 6.8 °C 1012.8 hPa Calm     50 % 0.0 mm 0.0 W/m2 CLR
01:54 17.1 °C 6.9 °C 1012.8 hPa Calm     51 % 0.0 mm 0.0 W/m2 CLR
01:59 16.9 °C 6.7 °C 1012.8 hPa Calm     51 % 0.0 mm 0.0 W/m2 CLR
02:04 16.7 °C 6.5 °C 1012.4 hPa Calm     51 % 0.0 mm 0.0 W/m2 CLR
02:09 16.5 °C 6.9 °C 1012.4 hPa Calm     53 % 0.0 mm 0.0 W/m2 CLR
02:14 16.4 °C 6.8 °C 1012.4 hPa Calm     53 % 0.0 mm 0.0 W/m2 CLR
02:19 16.3 °C 6.7 °C 1012.4 hPa Calm     53 % 0.0 mm 0.0 W/m2 CLR
02:24 16.1 °C 6.2 °C 1012.4 hPa Calm     52 % 0.0 mm 0.0 W/m2 CLR
02:29 16.1 °C 6.5 °C 1012.4 hPa Calm     53 % 0.0 mm 0.0 W/m2 CLR
02:30 16.1 °C 6.5 °C 1012.8 hPa Calm     53 % 0.0 mm 0.0 W/m2 CLR
02:35 16.1 °C 6.4 °C 1012.4 hPa Calm     53 % 0.0 mm 0.0 W/m2 CLR
02:40 15.9 °C 6.6 °C 1012.4 hPa Calm     54 % 0.0 mm 0.0 W/m2 CLR
02:45 15.8 °C 6.6 °C 1012.4 hPa Calm     54 % 0.0 mm 0.0 W/m2 CLR
02:50 15.7 °C 6.7 °C 1012.4 hPa Calm     55 % 0.0 mm 0.0 W/m2 CLR
02:55 15.4 °C 6.4 °C 1012.8 hPa Calm     55 % 0.0 mm 0.0 W/m2 CLR
03:00 15.4 °C 6.4 °C 1012.4 hPa Calm     55 % 0.0 mm 0.0 W/m2 CLR
03:05 15.3 °C 6.3 °C 1012.4 hPa Calm     55 % 0.0 mm 0.0 W/m2 CLR
03:10 15.1 °C 6.1 °C 1012.8 hPa Calm     55 % 0.0 mm 0.0 W/m2 CLR
03:11 15.1 °C 6.4 °C 1012.4 hPa Calm     56 % 0.0 mm 0.0 W/m2 CLR
03:16 15.1 °C 6.3 °C 1012.4 hPa Calm     56 % 0.0 mm 0.0 W/m2 CLR
03:21 15.0 °C 6.3 °C 1012.8 hPa Calm     56 % 0.0 mm 0.0 W/m2 CLR
03:26 14.9 °C 6.2 °C 1012.8 hPa Calm     56 % 0.0 mm 0.0 W/m2 CLR
03:31 14.8 °C 6.4 °C 1012.8 hPa Calm     57 % 0.0 mm 0.0 W/m2 CLR
03:41 14.6 °C 6.2 °C 1012.4 hPa Calm     57 % 0.0 mm 0.0 W/m2 CLR
03:46 14.6 °C 5.9 °C 1012.8 hPa Calm     56 % 0.0 mm 0.0 W/m2 CLR
03:51 14.7 °C 6.0 °C 1012.8 hPa Calm     56 % 0.0 mm 0.0 W/m2 CLR
03:56 14.7 °C 6.0 °C 1012.4 hPa Calm     56 % 0.0 mm 0.0 W/m2 CLR
04:01 14.6 °C 6.2 °C 1012.4 hPa Calm     57 % 0.0 mm 0.0 W/m2 CLR
04:06 14.3 °C 5.9 °C 1012.8 hPa Calm     57 % 0.0 mm 0.0 W/m2 CLR
04:11 14.2 °C 6.1 °C 1012.8 hPa Calm     58 % 0.0 mm 0.0 W/m2 CLR
04:16 14.1 °C 6.2 °C 1012.8 hPa Calm     59 % 0.0 mm 0.0 W/m2 CLR
04:21 13.9 °C 6.1 °C 1012.8 hPa Calm     59 % 0.0 mm 0.0 W/m2 CLR
04:26 13.9 °C 6.0 °C 1012.8 hPa Calm     59 % 0.0 mm 0.0 W/m2 CLR
04:31 13.8 °C 5.9 °C 1012.8 hPa Calm     59 % 0.0 mm 0.0 W/m2 CLR
04:36 13.8 °C 5.9 °C 1012.8 hPa Calm     59 % 0.0 mm 0.0 W/m2 CLR
04:41 13.9 °C 5.5 °C 1012.8 hPa Calm     57 % 0.0 mm 0.0 W/m2 CLR
04:46 13.9 °C 5.8 °C 1012.8 hPa Calm     58 % 0.0 mm 0.0 W/m2 CLR
04:51 13.9 °C 5.8 °C 1012.8 hPa Calm     58 % 0.0 mm 0.0 W/m2 CLR
04:56 13.9 °C 5.8 °C 1012.8 hPa Calm     58 % 0.0 mm 0.0 W/m2 CLR
05:01 13.9 °C 5.8 °C 1012.8 hPa Calm     58 % 0.0 mm 0.0 W/m2 CLR
05:06 13.8 °C 5.7 °C 1012.8 hPa Calm     58 % 0.0 mm 0.0 W/m2 CLR
05:11 13.7 °C 5.6 °C 1012.8 hPa Calm     58 % 0.0 mm 0.0 W/m2 CLR
05:16 13.7 °C 5.6 °C 1012.8 hPa Calm     58 % 0.0 mm 0.0 W/m2 CLR
05:21 13.8 °C 5.7 °C 1012.8 hPa Calm     58 % 0.0 mm 0.0 W/m2 CLR
05:26 13.7 °C 5.3 °C 1012.8 hPa Calm     57 % 0.0 mm 0.0 W/m2 CLR
05:31 13.6 °C 5.2 °C 1012.8 hPa Calm     57 % 0.0 mm 0.0 W/m2 CLR
05:36 13.6 °C 5.2 °C 1012.8 hPa Calm     57 % 0.0 mm 0.0 W/m2 CLR
05:41 13.6 °C 5.4 °C 1012.8 hPa Calm     58 % 0.0 mm 0.0 W/m2 CLR
05:46 13.5 °C 5.4 °C 1012.4 hPa Calm     58 % 0.0 mm 0.0 W/m2 CLR
05:51 13.4 °C 5.3 °C 1012.8 hPa Calm     58 % 0.0 mm 0.0 W/m2 CLR
05:56 13.2 °C 5.4 °C 1012.8 hPa Calm     59 % 0.0 mm 0.0 W/m2 CLR
06:01 13.1 °C 5.3 °C 1012.8 hPa Calm     59 % 0.0 mm 0.0 W/m2 CLR
06:06 13.1 °C 5.3 °C 1012.8 hPa Calm     59 % 0.0 mm 0.0 W/m2 CLR
06:11 13.1 °C 5.4 °C 1012.8 hPa Calm     60 % 0.0 mm 0.0 W/m2 CLR
06:17 12.9 °C 5.3 °C 1012.8 hPa Calm     60 % 0.0 mm 0.0 W/m2 CLR
06:22 12.9 °C 5.1 °C 1012.8 hPa Calm     59 % 0.0 mm 0.0 W/m2 CLR
06:27 12.9 °C 5.1 °C 1012.8 hPa Calm     59 % 0.0 mm 0.0 W/m2 OVC
06:32 12.9 °C 5.1 °C 1012.8 hPa Calm     59 % 0.0 mm 5.0 W/m2 OVC
06:37 12.9 °C 5.3 °C 1012.8 hPa Calm     60 % 0.0 mm 7.0 W/m2 BKN
06:42 12.9 °C 5.1 °C 1012.8 hPa Calm     59 % 0.0 mm 11.0 W/m2 BKN
06:47 13.1 °C 5.0 °C 1012.8 hPa Calm     58 % 0.0 mm 12.0 W/m2 BKN
06:52 13.1 °C 4.8 °C 1012.8 hPa Calm     57 % 0.0 mm 16.0 W/m2 BKN
06:57 13.2 °C 5.1 °C 1012.8 hPa Calm     58 % 0.0 mm 18.0 W/m2 BKN
07:02 13.1 °C 5.0 °C 1012.8 hPa Calm     58 % 0.0 mm 23.0 W/m2 BKN
07:07 13.1 °C 5.2 °C 1012.8 hPa Calm     59 % 0.0 mm 28.0 W/m2 BKN
07:12 13.1 °C 5.3 °C 1012.8 hPa Calm     59 % 0.0 mm 32.0 W/m2 BKN
07:17 13.2 °C 5.3 °C 1012.8 hPa Calm     59 % 0.0 mm 44.0 W/m2 BKN
07:22 13.2 °C 5.3 °C 1012.8 hPa Calm     59 % 0.0 mm 54.0 W/m2 SCT
07:27 13.3 °C 5.5 °C 1013.1 hPa Calm     59 % 0.0 mm 65.0 W/m2 SCT
07:32 13.7 °C 5.8 °C 1013.1 hPa Calm     59 % 0.0 mm 77.0 W/m2 FEW
07:37 14.0 °C 5.8 °C 1013.1 hPa Calm     58 % 0.0 mm 90.0 W/m2 FEW
07:42 14.4 °C 6.0 °C 1013.1 hPa Calm     57 % 0.0 mm 104.0 W/m2 CLR
07:47 14.8 °C 6.1 °C 1013.1 hPa Calm     56 % 0.0 mm 120.0 W/m2 CLR
07:52 15.2 °C 5.9 °C 1013.1 hPa Calm     54 % 0.0 mm 135.0 W/m2 CLR
07:57 15.4 °C 5.9 °C 1013.1 hPa Calm     53 % 0.0 mm 151.0 W/m2 CLR
08:02 15.7 °C 6.2 °C 1013.1 hPa Calm     53 % 0.0 mm 167.0 W/m2 CLR
08:07 16.1 °C 6.2 °C 1013.1 hPa Calm     52 % 0.0 mm 185.0 W/m2 CLR
08:12 16.5 °C 6.1 °C 1013.1 hPa Calm     50 % 0.0 mm 200.0 W/m2 CLR
08:17 16.9 °C 6.1 °C 1013.1 hPa Calm     49 % 0.0 mm 216.0 W/m2 CLR
08:22 17.3 °C 6.2 °C 1013.1 hPa Calm     48 % 0.0 mm 232.0 W/m2 CLR
08:23 17.4 °C 6.3 °C 1013.1 hPa Calm     48 % 0.0 mm 237.0 W/m2 CLR
08:28 18.0 °C 6.8 °C 1013.1 hPa Calm     48 % 0.0 mm 251.0 W/m2 CLR
08:33 18.6 °C 7.1 °C 1013.1 hPa Calm     47 % 0.0 mm 265.0 W/m2 CLR
08:38 19.2 °C 6.7 °C 1013.1 hPa Calm     44 % 0.0 mm 279.0 W/m2 CLR
08:43 19.7 °C 7.1 °C 1013.1 hPa Calm     44 % 0.0 mm 299.0 W/m2 CLR
08:48 20.2 °C 6.9 °C 1013.1 hPa Calm     42 % 0.0 mm 313.0 W/m2 CLR
08:53 20.5 °C 6.4 °C 1013.1 hPa Calm     40 % 0.0 mm 327.0 W/m2 CLR
08:58 21.0 °C 6.5 °C 1013.1 hPa Calm     39 % 0.0 mm 343.0 W/m2 CLR
09:03 21.6 °C 6.6 °C 1013.1 hPa Calm     38 % 0.0 mm 362.0 W/m2 CLR
09:08 22.1 °C 7.5 °C 1013.1 hPa Calm     39 % 0.0 mm 376.0 W/m2 CLR
09:13 22.8 °C 6.9 °C 1013.4 hPa Calm     36 % 0.0 mm 390.0 W/m2 CLR
09:18 23.3 °C 6.9 °C 1013.4 hPa Calm     35 % 0.0 mm 404.0 W/m2 CLR
09:23 23.7 °C 6.4 °C 1013.1 hPa ENE 5.6 km/h 5.6 km/h 33 % 0.0 mm 422.0 W/m2 CLR
09:28 24.1 °C 6.8 °C 1013.1 hPa Calm     33 % 0.0 mm 436.0 W/m2 CLR
09:33 24.2 °C 7.3 °C 1013.1 hPa Calm     34 % 0.0 mm 452.0 W/m2 CLR
09:38 24.3 °C 7.4 °C 1013.1 hPa Calm     34 % 0.0 mm 466.0 W/m2 CLR
09:43 24.4 °C 7.9 °C 1013.1 hPa Calm     35 % 0.0 mm 478.0 W/m2 CLR
09:48 24.4 °C 8.0 °C 1013.1 hPa ENE 5.6 km/h 5.6 km/h 35 % 0.0 mm 496.0 W/m2 CLR
09:53 24.6 °C 8.1 °C 1013.1 hPa ENE 5.6 km/h 5.6 km/h 35 % 0.0 mm 512.0 W/m2 CLR
09:58 24.8 °C 8.7 °C 1013.1 hPa ENE 6.4 km/h 6.4 km/h 36 % 0.0 mm 522.0 W/m2 CLR
10:03 25.1 °C 8.9 °C 1012.8 hPa ENE 9.3 km/h 9.3 km/h 36 % 0.0 mm 538.0 W/m2 CLR
10:08 25.2 °C 9.1 °C 1012.8 hPa ENE 8.0 km/h 8.0 km/h 36 % 0.0 mm 554.0 W/m2 CLR
10:13 25.6 °C 9.4 °C 1012.8 hPa ENE 7.4 km/h 7.4 km/h 36 % 0.0 mm 566.0 W/m2 CLR
10:18 25.9 °C 9.3 °C 1012.8 hPa ENE 7.4 km/h 7.4 km/h 35 % 0.0 mm 578.0 W/m2 CLR
10:23 26.1 °C 9.9 °C 1012.8 hPa ENE 5.6 km/h 5.6 km/h 36 % 0.0 mm 596.0 W/m2 CLR
10:28 26.2 °C 10.7 °C 1012.8 hPa NE 9.3 km/h 9.3 km/h 38 % 0.0 mm 608.0 W/m2 CLR
10:33 26.3 °C 10.9 °C 1012.8 hPa ENE 11.1 km/h 11.1 km/h 38 % 0.0 mm 624.0 W/m2 CLR
10:36 26.4 °C 11.0 °C 1012.8 hPa ENE 7.4 km/h 7.4 km/h 38 % 0.0 mm 628.0 W/m2 CLR
10:41 26.6 °C 10.7 °C 1012.8 hPa ENE 9.3 km/h 9.3 km/h 37 % 0.0 mm 642.0 W/m2 CLR
10:46 26.7 °C 10.3 °C 1012.8 hPa NE 11.3 km/h 11.3 km/h 36 % 0.0 mm 656.0 W/m2 CLR
10:51 26.8 °C 10.1 °C 1012.8 hPa NE 11.1 km/h 11.1 km/h 35 % 0.0 mm 668.0 W/m2 CLR
10:56 27.0 °C 9.8 °C 1012.8 hPa NNE 11.1 km/h 11.1 km/h 34 % 0.0 mm 680.0 W/m2 CLR
11:01 27.2 °C 10.0 °C 1012.8 hPa NE 8.0 km/h 8.0 km/h 34 % 0.0 mm 693.0 W/m2 CLR
11:06 27.6 °C 9.4 °C 1012.8 hPa ENE 9.3 km/h 9.3 km/h 32 % 0.0 mm 703.0 W/m2 CLR
11:11 27.9 °C 8.7 °C 1012.8 hPa ESE 9.3 km/h 9.3 km/h 30 % 0.0 mm 717.0 W/m2 CLR
11:16 28.0 °C 9.8 °C 1012.8 hPa SE 9.3 km/h 9.3 km/h 32 % 0.0 mm 728.0 W/m2 CLR
11:21 28.3 °C 9.6 °C 1012.4 hPa NE 7.4 km/h 7.4 km/h 31 % 0.0 mm 737.0 W/m2 CLR
11:26 28.8 °C 10.4 °C 1012.4 hPa North 7.4 km/h 7.4 km/h 32 % 0.0 mm 749.0 W/m2 CLR
11:31 28.9 °C 11.1 °C 1012.4 hPa ENE 11.1 km/h 11.1 km/h 33 % 0.0 mm 761.0 W/m2 CLR
11:36 29.0 °C 11.6 °C 1012.4 hPa ENE 13.0 km/h 13.0 km/h 34 % 0.0 mm 772.0 W/m2 CLR
11:41 29.3 °C 11.3 °C 1012.4 hPa ENE 9.3 km/h 9.3 km/h 33 % 0.0 mm 782.0 W/m2 CLR
11:46 29.6 °C 9.7 °C 1012.4 hPa SE 13.0 km/h 13.0 km/h 29 % 0.0 mm 793.0 W/m2 CLR
11:51 29.7 °C 9.7 °C 1012.4 hPa ENE 11.1 km/h 11.1 km/h 29 % 0.0 mm 800.0 W/m2 CLR
11:56 29.8 °C 9.8 °C 1012.4 hPa East 8.0 km/h 8.0 km/h 29 % 0.0 mm 812.0 W/m2 CLR
12:01 29.6 °C 10.2 °C 1012.4 hPa East 5.6 km/h 5.6 km/h 30 % 0.0 mm 819.0 W/m2 CLR
12:06 29.8 °C 10.9 °C 1012.4 hPa ENE 7.4 km/h 7.4 km/h 31 % 0.0 mm 824.0 W/m2 CLR
12:11 30.1 °C 11.1 °C 1012.1 hPa ENE 8.0 km/h 8.0 km/h 31 % 0.0 mm 831.0 W/m2 CLR
12:16 30.3 °C 11.3 °C 1012.1 hPa Calm     31 % 0.0 mm 846.0 W/m2 CLR
12:21 30.4 °C 11.9 °C 1012.1 hPa ENE 13.0 km/h 13.0 km/h 32 % 0.0 mm 849.0 W/m2 CLR
12:26 30.8 °C 12.7 °C 1012.1 hPa NNE 13.0 km/h 13.0 km/h 33 % 0.0 mm 860.0 W/m2 CLR
12:31 30.8 °C 12.7 °C 1011.7 hPa ENE 13.0 km/h 13.0 km/h 33 % 0.0 mm 863.0 W/m2 CLR
12:36 30.8 °C 12.2 °C 1011.7 hPa ENE 18.5 km/h 18.5 km/h 32 % 0.0 mm 874.0 W/m2 CLR
12:41 31.1 °C 12.9 °C 1011.7 hPa ENE 25.7 km/h 25.7 km/h 33 % 0.0 mm 884.0 W/m2 CLR
12:47 30.8 °C 13.1 °C 1011.7 hPa NE 18.5 km/h 18.5 km/h 34 % 0.0 mm 896.0 W/m2 CLR
12:51 31.0 °C 13.3 °C 1011.4 hPa ENE 24.1 km/h 24.1 km/h 34 % 0.0 mm 907.0 W/m2 CLR
12:57 30.9 °C 13.7 °C 1011.4 hPa ESE 18.5 km/h 18.5 km/h 35 % 0.0 mm 918.0 W/m2 CLR
13:02 30.9 °C 13.3 °C 1011.4 hPa ENE 16.7 km/h 16.7 km/h 34 % 0.0 mm 930.0 W/m2 CLR
13:07 31.2 °C 13.0 °C 1011.4 hPa ESE 18.5 km/h 18.5 km/h 33 % 0.0 mm 958.0 W/m2 CLR
13:12 31.4 °C 9.0 °C 1011.4 hPa Calm     25 % 0.0 mm 963.0 W/m2 CLR
13:17 31.7 °C 8.1 °C 1011.4 hPa South 13.0 km/h 13.0 km/h 23 % 0.0 mm 969.0 W/m2 CLR
13:22 31.8 °C 8.1 °C 1011.4 hPa ESE 8.0 km/h 8.0 km/h 23 % 0.0 mm 949.0 W/m2 CLR
13:27 32.2 °C 11.4 °C 1011.4 hPa ESE 17.7 km/h 17.7 km/h 28 % 0.0 mm 940.0 W/m2 CLR
13:32 31.9 °C 13.6 °C 1011.4 hPa East 18.5 km/h 18.5 km/h 33 % 0.0 mm 939.0 W/m2 CLR
13:37 31.8 °C 8.1 °C 1011.4 hPa South 13.0 km/h 13.0 km/h 23 % 0.0 mm 937.0 W/m2 CLR
13:42 32.3 °C 8.5 °C 1011.4 hPa SSE 14.8 km/h 14.8 km/h 23 % 0.0 mm 935.0 W/m2 CLR
13:47 32.1 °C 8.3 °C 1011.1 hPa South 20.9 km/h 20.9 km/h 23 % 0.0 mm 933.0 W/m2 CLR
13:52 32.1 °C 8.3 °C 1011.1 hPa SE 5.6 km/h 5.6 km/h 23 % 0.0 mm 930.0 W/m2 CLR
13:57 32.1 °C 9.0 °C 1011.1 hPa South 14.8 km/h 14.8 km/h 24 % 0.0 mm 925.0 W/m2 CLR
14:02 32.3 °C 9.2 °C 1011.1 hPa SE 24.1 km/h 24.1 km/h 24 % 0.0 mm 926.0 W/m2 CLR
14:07 32.7 °C 8.8 °C 1011.1 hPa SSE 12.9 km/h 12.9 km/h 23 % 0.0 mm 925.0 W/m2 CLR
14:12 32.7 °C 8.2 °C 1011.1 hPa SSW 13.0 km/h 13.0 km/h 22 % 0.0 mm 926.0 W/m2 CLR
14:17 32.6 °C 9.4 °C 1011.1 hPa East 16.7 km/h 16.7 km/h 24 % 0.0 mm 918.0 W/m2 CLR
14:22 32.2 °C 11.9 °C 1011.1 hPa SE 27.8 km/h 27.8 km/h 29 % 0.0 mm 912.0 W/m2 CLR
14:27 32.1 °C 12.8 °C 1011.1 hPa SE 31.5 km/h 31.5 km/h 31 % 0.0 mm 912.0 W/m2 CLR
14:32 31.6 °C 14.7 °C 1011.1 hPa SE 14.8 km/h 14.8 km/h 36 % 0.0 mm 909.0 W/m2 CLR
14:37 31.5 °C 14.2 °C 1011.1 hPa SE 25.9 km/h 25.9 km/h 35 % 0.0 mm 909.0 W/m2 CLR
14:42 31.3 °C 14.0 °C 1011.1 hPa ESE 25.9 km/h 25.9 km/h 35 % 0.0 mm 902.0 W/m2 CLR
14:47 31.1 °C 14.3 °C 1010.7 hPa ESE 25.9 km/h 25.9 km/h 36 % 0.0 mm 902.0 W/m2 CLR
14:52 30.9 °C 14.6 °C 1010.7 hPa ESE 22.5 km/h 22.5 km/h 37 % 0.0 mm 893.0 W/m2 CLR
14:57 31.1 °C 14.2 °C 1010.7 hPa SE 24.1 km/h 24.1 km/h 36 % 0.0 mm 889.0 W/m2 CLR
15:02 31.1 °C 13.8 °C 1010.7 hPa ESE 20.4 km/h 20.4 km/h 35 % 0.0 mm 886.0 W/m2 CLR
15:07 31.2 °C 13.9 °C 1010.7 hPa SE 24.1 km/h 24.1 km/h 35 % 0.0 mm 881.0 W/m2 CLR
15:17 31.1 °C 13.8 °C 1010.7 hPa SE 27.8 km/h 27.8 km/h 35 % 0.0 mm 867.0 W/m2 CLR
15:22 31.3 °C 14.0 °C 1010.7 hPa SE 25.9 km/h 25.9 km/h 35 % 0.0 mm 861.0 W/m2 CLR
15:27 31.4 °C 13.7 °C 1010.4 hPa SSE 29.6 km/h 29.6 km/h 34 % 0.0 mm 858.0 W/m2 CLR
15:32 31.3 °C 14.0 °C 1010.4 hPa SE 29.0 km/h 29.0 km/h 35 % 0.0 mm 851.0 W/m2 CLR
15:37 31.3 °C 13.6 °C 1010.4 hPa East 22.2 km/h 22.2 km/h 34 % 0.0 mm 844.0 W/m2 CLR
15:38 31.3 °C 13.6 °C 1010.4 hPa ESE 22.2 km/h 22.2 km/h 34 % 0.0 mm 844.0 W/m2 CLR
15:43 31.7 °C 13.9 °C 1010.4 hPa ESE 20.4 km/h 20.4 km/h 34 % 0.0 mm 837.0 W/m2 CLR
15:48 31.6 °C 13.8 °C 1010.4 hPa ESE 25.9 km/h 25.9 km/h 34 % 0.0 mm 828.0 W/m2 CLR
15:53 31.7 °C 14.3 °C 1010.4 hPa ESE 22.5 km/h 22.5 km/h 35 % 0.0 mm 821.0 W/m2 CLR
15:58 31.4 °C 13.2 °C 1010.0 hPa SSE 27.8 km/h 27.8 km/h 33 % 0.0 mm 814.0 W/m2 CLR
16:03 31.2 °C 13.9 °C 1010.4 hPa SE 22.2 km/h 22.2 km/h 35 % 0.0 mm 805.0 W/m2 CLR
16:04 31.3 °C 14.1 °C 1010.0 hPa East 18.5 km/h 18.5 km/h 35 % 0.0 mm 798.0 W/m2 CLR
16:09 31.3 °C 14.9 °C 1010.0 hPa SSE 20.4 km/h 20.4 km/h 37 % 0.0 mm 791.0 W/m2 CLR
16:14 31.6 °C 13.8 °C 1010.0 hPa ESE 13.0 km/h 13.0 km/h 34 % 0.0 mm 779.0 W/m2 CLR
16:19 31.3 °C 14.9 °C 1010.0 hPa ESE 16.7 km/h 16.7 km/h 37 % 0.0 mm 768.0 W/m2 CLR
16:24 31.4 °C 14.5 °C 1010.0 hPa SSE 31.5 km/h 31.5 km/h 36 % 0.0 mm 759.0 W/m2 CLR
16:29 31.3 °C 14.1 °C 1010.0 hPa ESE 25.9 km/h 25.9 km/h 35 % 0.0 mm 747.0 W/m2 CLR
16:34 31.4 °C 13.2 °C 1010.0 hPa ESE 29.0 km/h 29.0 km/h 33 % 0.0 mm 744.0 W/m2 CLR
16:39 31.2 °C 12.6 °C 1010.0 hPa SE 20.4 km/h 20.4 km/h 32 % 0.0 mm 733.0 W/m2 CLR
16:44 31.3 °C 12.7 °C 1010.0 hPa SSE 29.6 km/h 29.6 km/h 32 % 0.0 mm 724.0 W/m2 CLR
16:49 31.4 °C 12.7 °C 1010.0 hPa SSE 24.1 km/h 24.1 km/h 32 % 0.0 mm 715.0 W/m2 CLR
16:54 31.4 °C 12.2 °C 1010.0 hPa SE 25.9 km/h 25.9 km/h 31 % 0.0 mm 700.0 W/m2 CLR
16:59 31.7 °C 12.5 °C 1010.0 hPa SE 35.2 km/h 35.2 km/h 31 % 0.0 mm 686.0 W/m2 CLR
17:04 31.7 °C 12.9 °C 1010.0 hPa SSE 20.4 km/h 20.4 km/h 32 % 0.0 mm 671.0 W/m2 CLR
17:09 31.6 °C 13.8 °C 1010.0 hPa ESE 25.7 km/h 25.7 km/h 34 % 0.0 mm 668.0 W/m2 CLR
17:14 31.3 °C 13.1 °C 1010.0 hPa SE 24.1 km/h 24.1 km/h 33 % 0.0 mm 626.0 W/m2 CLR
17:19 31.1 °C 12.9 °C 1010.0 hPa ESE 29.6 km/h 29.6 km/h 33 % 0.0 mm 635.0 W/m2 CLR
17:24 31.3 °C 13.6 °C 1010.0 hPa SE 31.5 km/h 31.5 km/h 34 % 0.0 mm 628.0 W/m2 CLR
17:29 31.2 °C 13.0 °C 1010.0 hPa SSE 25.9 km/h 25.9 km/h 33 % 0.0 mm 621.0 W/m2 CLR
17:34 31.2 °C 13.5 °C 1010.0 hPa SE 20.9 km/h 20.9 km/h 34 % 0.0 mm 612.0 W/m2 CLR
17:39 31.4 °C 14.1 °C 1010.0 hPa SE 16.7 km/h 16.7 km/h 35 % 0.0 mm 559.0 W/m2 CLR
17:44 31.5 °C 12.3 °C 1010.0 hPa SSE 22.2 km/h 22.2 km/h 31 % 0.0 mm 592.0 W/m2 CLR
17:49 31.3 °C 11.7 °C 1010.0 hPa SE 25.9 km/h 25.9 km/h 30 % 0.0 mm 577.0 W/m2 CLR
17:54 31.2 °C 11.6 °C 1010.0 hPa SSE 18.5 km/h 18.5 km/h 30 % 0.0 mm 559.0 W/m2 CLR
17:59 31.2 °C 11.6 °C 1010.0 hPa SE 22.2 km/h 22.2 km/h 30 % 0.0 mm 540.0 W/m2 CLR
18:04 31.2 °C 11.0 °C 1010.4 hPa South 24.1 km/h 24.1 km/h 29 % 0.0 mm 466.0 W/m2 CLR
18:09 30.9 °C 10.8 °C 1010.4 hPa SSW 24.1 km/h 24.1 km/h 29 % 0.0 mm 116.0 W/m2 CLR
18:14 30.5 °C 10.4 °C 1010.4 hPa South 20.4 km/h 20.4 km/h 29 % 0.0 mm 88.0 W/m2 CLR
18:19 30.2 °C 10.2 °C 1010.4 hPa SSW 25.9 km/h 25.9 km/h 29 % 0.0 mm 95.0 W/m2 CLR
18:24 30.0 °C 10.6 °C 1010.4 hPa South 18.5 km/h 18.5 km/h 30 % 0.0 mm 104.0 W/m2 CLR
18:30 29.8 °C 10.4 °C 1010.4 hPa South 18.5 km/h 18.5 km/h 30 % 0.0 mm 111.0 W/m2 CLR
18:35 29.7 °C 10.8 °C 1010.4 hPa South 14.8 km/h 14.8 km/h 31 % 0.0 mm 111.0 W/m2 CLR
18:40 29.6 °C 10.6 °C 1010.4 hPa South 18.5 km/h 18.5 km/h 31 % 0.0 mm 102.0 W/m2 CLR
18:45 29.4 °C 10.9 °C 1010.7 hPa South 18.5 km/h 18.5 km/h 32 % 0.0 mm 90.0 W/m2 CLR
18:50 29.1 °C 11.2 °C 1010.7 hPa South 20.4 km/h 20.4 km/h 33 % 0.0 mm 81.0 W/m2 CLR
18:55 28.8 °C 11.4 °C 1011.1 hPa SSW 29.0 km/h 29.0 km/h 34 % 0.0 mm 70.0 W/m2 FEW
19:00 28.4 °C 11.5 °C 1011.1 hPa SSW 20.4 km/h 20.4 km/h 35 % 0.0 mm 63.0 W/m2 FEW
19:05 28.2 °C 11.3 °C 1011.1 hPa South 16.7 km/h 16.7 km/h 35 % 0.0 mm 56.0 W/m2 SCT
19:10 28.1 °C 11.6 °C 1011.4 hPa SSW 18.5 km/h 18.5 km/h 36 % 0.0 mm 49.0 W/m2 SCT
19:15 27.9 °C 12.3 °C 1011.4 hPa SSW 18.5 km/h 18.5 km/h 38 % 0.0 mm 42.0 W/m2 SCT
19:20 27.7 °C 12.5 °C 1011.1 hPa SSW 14.8 km/h 14.8 km/h 39 % 0.0 mm 39.0 W/m2 BKN
19:25 27.6 °C 12.3 °C 1011.1 hPa SSW 20.4 km/h 20.4 km/h 39 % 0.0 mm 35.0 W/m2 BKN
19:30 27.4 °C 12.2 °C 1010.7 hPa South 11.1 km/h 11.1 km/h 39 % 0.0 mm 32.0 W/m2 BKN
19:35 27.2 °C 12.4 °C 1010.7 hPa South 24.1 km/h 24.1 km/h 40 % 0.0 mm 30.0 W/m2 BKN
19:40 27.1 °C 12.7 °C 1010.7 hPa SSE 25.9 km/h 25.9 km/h 41 % 0.0 mm 30.0 W/m2 BKN
19:45 26.9 °C 12.5 °C 1010.4 hPa SSE 29.6 km/h 29.6 km/h 41 % 0.0 mm 30.0 W/m2 BKN
19:50 26.8 °C 12.4 °C 1010.4 hPa SE 18.5 km/h 18.5 km/h 41 % 0.0 mm 32.0 W/m2 BKN
19:55 26.8 °C 12.4 °C 1010.4 hPa SSE 25.7 km/h 25.7 km/h 41 % 0.0 mm 35.0 W/m2 BKN
20:00 26.6 °C 12.2 °C 1010.0 hPa SE 31.5 km/h 31.5 km/h 41 % 0.0 mm 39.0 W/m2 BKN
20:05 26.4 °C 12.1 °C 1010.0 hPa SSE 18.5 km/h 18.5 km/h 41 % 0.0 mm 46.0 W/m2 BKN
20:06 26.4 °C 12.1 °C 1010.0 hPa SE 19.3 km/h 19.3 km/h 41 % 0.0 mm 47.0 W/m2 BKN
20:11 26.4 °C 11.7 °C 1010.0 hPa South 25.9 km/h 25.9 km/h 40 % 0.0 mm 67.0 W/m2 SCT
20:16 26.4 °C 11.3 °C 1010.0 hPa SSE 24.1 km/h 24.1 km/h 39 % 0.0 mm 109.0 W/m2 FEW
20:21 26.4 °C 13.2 °C 1010.0 hPa ESE 18.5 km/h 18.5 km/h 44 % 0.0 mm 109.0 W/m2 CLR
20:26 25.9 °C 14.1 °C 1010.0 hPa East 13.0 km/h 13.0 km/h 48 % 0.0 mm 104.0 W/m2 CLR
20:31 25.7 °C 14.2 °C 1010.4 hPa ESE 5.6 km/h 5.6 km/h 49 % 0.0 mm 104.0 W/m2 CLR
20:36 25.6 °C 14.4 °C 1010.4 hPa Calm     50 % 0.0 mm 116.0 W/m2 CLR
20:41 25.3 °C 15.1 °C 1010.4 hPa SE 9.3 km/h 9.3 km/h 53 % 0.0 mm 125.0 W/m2 CLR
20:46 24.9 °C 15.3 °C 1010.4 hPa ESE 7.4 km/h 7.4 km/h 55 % 0.0 mm 116.0 W/m2 CLR
20:51 24.7 °C 15.1 °C 1011.1 hPa Calm     55 % 0.0 mm 95.0 W/m2 CLR
21:01 24.5 °C 15.2 °C 1011.1 hPa Calm     56 % 0.0 mm 56.0 W/m2 SCT
21:06 24.3 °C 15.0 °C 1011.1 hPa East 5.6 km/h 5.6 km/h 56 % 0.0 mm 33.0 W/m2 BKN
21:11 24.3 °C 15.2 °C 1011.4 hPa Calm     57 % 0.0 mm 16.0 W/m2 BKN
21:16 24.0 °C 15.5 °C 1011.4 hPa ENE 5.6 km/h 5.6 km/h 59 % 0.0 mm 5.0 W/m2 OVC
21:21 23.7 °C 15.5 °C 1011.7 hPa Calm     60 % 0.0 mm 0.0 W/m2 OVC
21:26 23.4 °C 15.4 °C 1011.7 hPa ENE 5.6 km/h 5.6 km/h 61 % 0.0 mm 0.0 W/m2 OVC
21:31 23.1 °C 15.7 °C 1011.7 hPa Calm     63 % 0.0 mm 0.0 W/m2 CLR
21:36 22.8 °C 15.7 °C 1011.7 hPa Calm     64 % 0.0 mm 0.0 W/m2 CLR
21:41 22.7 °C 15.5 °C 1011.7 hPa Calm     64 % 0.0 mm 0.0 W/m2 CLR
21:46 22.4 °C 15.6 °C 1011.7 hPa Calm     65 % 0.0 mm 0.0 W/m2 CLR
21:51 22.3 °C 15.6 °C 1011.7 hPa Calm     66 % 0.0 mm 0.0 W/m2 CLR
21:56 22.1 °C 15.7 °C 1012.1 hPa Calm     67 % 0.0 mm 0.0 W/m2 CLR
22:01 22.0 °C 15.8 °C 1012.1 hPa Calm     68 % 0.0 mm 0.0 W/m2 CLR
22:06 21.8 °C 15.7 °C 1012.1 hPa Calm     68 % 0.0 mm 0.0 W/m2 CLR
22:11 21.7 °C 15.8 °C 1012.4 hPa Calm     69 % 0.0 mm 0.0 W/m2 CLR
22:16 21.6 °C 15.8 °C 1012.4 hPa Calm     70 % 0.0 mm 0.0 W/m2 CLR
22:21 21.4 °C 15.7 °C 1012.4 hPa Calm     70 % 0.0 mm 0.0 W/m2 CLR
22:26 21.3 °C 15.8 °C 1012.4 hPa Calm     71 % 0.0 mm 0.0 W/m2 CLR
22:31 21.3 °C 15.8 °C 1012.4 hPa Calm     71 % 0.0 mm 0.0 W/m2 CLR
22:36 21.3 °C 15.8 °C 1012.8 hPa Calm     71 % 0.0 mm 0.0 W/m2 CLR
22:37 21.3 °C 15.8 °C 1012.8 hPa Calm     71 % 0.0 mm 0.0 W/m2 CLR
22:42 21.3 °C 15.6 °C 1012.8 hPa Calm     70 % 0.0 mm 0.0 W/m2 CLR
22:47 21.3 °C 15.6 °C 1012.8 hPa Calm     70 % 0.0 mm 0.0 W/m2 CLR
22:52 21.4 °C 15.4 °C 1012.8 hPa Calm     69 % 0.0 mm 0.0 W/m2 CLR
22:57 21.4 °C 15.4 °C 1012.8 hPa Calm     69 % 0.0 mm 0.0 W/m2 CLR
23:02 21.3 °C 15.2 °C 1012.8 hPa Calm     68 % 0.0 mm 0.0 W/m2 CLR
23:07 21.3 °C 15.2 °C 1013.1 hPa Calm     68 % 0.0 mm 0.0 W/m2 CLR
23:12 21.3 °C 15.1 °C 1013.1 hPa Calm     68 % 0.0 mm 0.0 W/m2 CLR
23:17 21.2 °C 15.3 °C 1013.1 hPa Calm     69 % 0.0 mm 0.0 W/m2 CLR
23:22 20.9 °C 15.2 °C 1012.8 hPa ESE 1.6 km/h 1.6 km/h 70 % 0.0 mm 0.0 W/m2 CLR
23:27 20.7 °C 15.3 °C 1012.8 hPa Calm     71 % 0.0 mm 0.0 W/m2 CLR
23:32 20.6 °C 15.2 °C 1012.8 hPa Calm     71 % 0.0 mm 0.0 W/m2 CLR
23:37 20.6 °C 15.1 °C 1012.8 hPa Calm     71 % 0.0 mm 0.0 W/m2 CLR
23:42 20.4 °C 15.0 °C 1012.8 hPa Calm     71 % 0.0 mm 0.0 W/m2 CLR
23:47 20.3 °C 14.9 °C 1012.8 hPa Calm     71 % 0.0 mm 0.0 W/m2 CLR
23:52 20.3 °C 14.8 °C 1012.8 hPa Calm     71 % 0.0 mm 0.0 W/m2 CLR
23:57 20.2 °C 14.7 °C 1013.1 hPa Calm     71 % 0.0 mm 0.0 W/m2 CLR
Lo Temps de Massalio
Compliments of Weather Underground - 1.25 mb